Nearby METAR Reports

Meteorological Terminal Air Report (METAR)

K3I2 - Pt Pleasant, West Virginia, USA
Distance from station: S 11mi, 18km
Updated: Thu, 02-Apr-2020 8:15am EDT
Clear
Clear
 Wind from calm
Wind: Calm
Temperature: 37°F , 3°C
Dew Point: 37°F , 3°C
Humidity: 100%
Barometer: 30.15 inHg , 1021 hPa
Clouds: Clear
Visibility: 10 miles , 16 km
2020/04/02 12:15 K3I2 021215Z AUTO 00000KT 10SM CLR 03/03 A3015 RMK AO2 T00320026
KUNI - Athens, Ohio, USA
Distance from station: NW 13mi, 21km
Updated: Thu, 02-Apr-2020 8:15am EDT
Clear
Clear
 Wind from calm
Wind: Calm
Temperature: 36°F , 2°C
Dew Point: 36°F , 2°C
Humidity: 100%
Barometer: 30.14 inHg , 1020.7 hPa
Clouds: Clear
Visibility: 10 miles , 16 km
2020/04/02 12:15 KUNI 021215Z AUTO 00000KT 10SM CLR 02/02 A3014 RMK AO2 T00200020
 
KPKB - Parkersburg, West Virginia, USA
Distance from station: ENE 40mi, 65km
Updated: Thu, 02-Apr-2020 7:53am EDT
Clear
Clear
 Wind from calm
Wind: Calm
Temperature: 37°F , 3°C
Dew Point: 30°F , -1°C
Humidity: 75%
Barometer: 30.12 inHg , 1020 hPa
Clouds: Clear
Visibility: 10 miles , 16 km
2020/04/02 11:53 KPKB 021153Z 00000KT 10SM CLR 03/M01 A3012 RMK AO2 SLP202 T00281006 10067 20017 53017
KCRW - Charleston, West Virginia, USA
Distance from station: SSE 55mi, 88km
Updated: Thu, 02-Apr-2020 7:54am EDT
Clear
Clear
 Wind from SW
Wind: SW 3 mph , 6 km/h
Temperature: 39°F , 4°C
Dew Point: 37°F , 3°C
Humidity: 93%
Barometer: 30.11 inHg , 1019.6 hPa
Clouds: Clear
Visibility: 10 miles , 16 km
2020/04/02 11:54 KCRW 021154Z 23003KT 10SM CLR 04/03 A3011 RMK AO2 SLP199 FG FEW000 70004 T00440028 10072 20039 53018
 
KHTS - Huntington, West Virginia, USA
Distance from station: SSW 55mi, 89km
Updated: Thu, 02-Apr-2020 7:51am EDT
Clear
Clear
 Wind from WNW
Wind: WNW 3 mph , 6 km/h
Temperature: 45°F , 7°C
Dew Point: 37°F , 3°C
Humidity: 76%
Barometer: 30.13 inHg , 1020.3 hPa
Clouds: Clear
Visibility: 10 miles , 16 km
2020/04/02 11:51 KHTS 021151Z 30003KT 10SM CLR 07/03 A3013 RMK AO2 SLP204 70001 T00670028 10078 20056 53019
KLHQ - Lancaster, Ohio, USA
Distance from station: NW 56mi, 91km
Updated: Thu, 02-Apr-2020 7:53am EDT
Mist, Clear
Mist, Clear
 Wind from calm
Wind: Calm
Temperature: 34°F , 1°C
Dew Point: 34°F , 1°C
Humidity: 100%
Barometer: 30.14 inHg , 1020.7 hPa
Summary: Mist
Clouds: Clear
Visibility: 4 miles , 6 km
2020/04/02 11:53 KLHQ 021153Z AUTO 00000KT 4SM BR CLR 01/01 A3014 RMK AO2 SLP210 I1000 I6000 T00110006 10067 20000 53018
 
KZZV - Zanesville, Ohio, USA
Distance from station: N 61mi, 99km
Updated: Thu, 02-Apr-2020 7:53am EDT
Clear
Clear
 Wind from calm
Wind: Calm
Temperature: 36°F , 2°C
Dew Point: 34°F , 1°C
Humidity: 93%
Barometer: 30.12 inHg , 1020 hPa
Clouds: Clear
Visibility: 10 miles , 16 km
2020/04/02 11:53 KZZV 021153Z AUTO 00000KT 10SM CLR 02/01 A3012 RMK AO2 SLP202 T00220011 10067 20017 53018
KLCK - Rickenbacker Ang, Ohio, USA
Distance from station: NW 68mi, 110km
Updated: Thu, 02-Apr-2020 7:55am EDT
Clear
Clear
 Wind from calm
Wind: Calm
Temperature: 36°F , 2°C
Dew Point: 36°F , 2°C
Humidity: 100%
Barometer: 30.14 inHg , 1020.7 hPa
Clouds: Clear
Visibility: 7 miles , 11 km
2020/04/02 11:55 KLCK 021155Z AUTO 00000KT 7SM CLR 02/02 A3014 RMK AO2 T00210018 10251 21110
 
KVTA - Newark, Ohio, USA
Distance from station: NNW 68mi, 110km
Updated: Thu, 02-Apr-2020 7:54am EDT
Mist, Clear
Mist, Clear
 Wind from calm
Wind: Calm
Temperature: 37°F , 3°C
Dew Point: 34°F , 1°C
Humidity: 87%
Barometer: 30.12 inHg , 1020 hPa
Summary: Mist
Clouds: Clear
Visibility: 4 miles , 6 km
2020/04/02 11:54 KVTA 021154Z AUTO 00000KT 4SM BR CLR 03/01 A3012 RMK AO2 SLP204 T00280006 10072 20017 53017